Happy Valley, Oregon
Current Conditions -  °F | °C
As of 4:53 AM on Thursday 23 Oct 2014 (Local Time) from KTTD Reporting Station
Light Rain Light Rain  
Wind Chill: 55°   Ceiling: 2800
Heat Index: 55°   Visibility: 5mi
Dew Point: 52°   Wind: 0mph
Humidity: 89%   Direction: NA
Pressure: 29.77"   Gusts: NA
Location:  45.45°N, 122.53°W
Report Text: KTTD 231153Z AUTO 00000KT 5SM -RA BR SCT021 BKN028 OVC033 13/11 A2977 RMK AO2 SLP081 P0013 60017 70131 T01280111 10144 20128 55005
Loading
Personal Weather Stations






























Interactive Weather Map New forecast layout! Learn more

10-Day Weather Forecast

Advertisements
Track Severe Weather on mobile